sensor_id;sensor_type;location;lat;lon;timestamp;P1;durP1;ratioP1;P2;durP2;ratioP2
14251;SDS011;7210;51.502;10.722;2022-12-16T00:00:05;25.43;;;13.77;;
14251;SDS011;7210;51.502;10.722;2022-12-16T00:02:35;21.67;;;12.87;;
14251;SDS011;7210;51.502;10.722;2022-12-16T00:05:04;22.57;;;13.27;;
14251;SDS011;7210;51.502;10.722;2022-12-16T00:07:32;23.33;;;13.50;;
14251;SDS011;7210;51.502;10.722;2022-12-16T00:10:02;24.87;;;13.70;;
14251;SDS011;7210;51.502;10.722;2022-12-16T00:12:32;23.03;;;13.43;;
14251;SDS011;7210;51.502;10.722;2022-12-16T00:14:59;25.33;;;13.30;;
14251;SDS011;7210;51.502;10.722;2022-12-16T00:17:27;23.33;;;14.07;;
14251;SDS011;7210;51.502;10.722;2022-12-16T00:19:54;21.73;;;13.30;;
14251;SDS011;7210;51.502;10.722;2022-12-16T00:22:22;22.37;;;13.17;;
14251;SDS011;7210;51.502;10.722;2022-12-16T00:24:50;23.47;;;13.13;;
14251;SDS011;7210;51.502;10.722;2022-12-16T00:27:17;22.13;;;12.10;;
14251;SDS011;7210;51.502;10.722;2022-12-16T00:29:44;23.30;;;13.60;;
14251;SDS011;7210;51.502;10.722;2022-12-16T00:32:14;21.17;;;12.80;;
14251;SDS011;7210;51.502;10.722;2022-12-16T00:34:41;24.20;;;13.57;;
14251;SDS011;7210;51.502;10.722;2022-12-16T00:37:09;22.07;;;12.87;;
14251;SDS011;7210;51.502;10.722;2022-12-16T00:39:38;19.73;;;12.83;;
14251;SDS011;7210;51.502;10.722;2022-12-16T00:42:06;23.97;;;13.37;;
14251;SDS011;7210;51.502;10.722;2022-12-16T00:44:33;23.67;;;13.57;;
14251;SDS011;7210;51.502;10.722;2022-12-16T00:47:00;22.70;;;14.47;;
14251;SDS011;7210;51.502;10.722;2022-12-16T00:49:27;24.50;;;13.97;;
14251;SDS011;7210;51.502;10.722;2022-12-16T00:51:56;21.00;;;13.10;;
14251;SDS011;7210;51.502;10.722;2022-12-16T00:54:23;27.27;;;14.47;;
14251;SDS011;7210;51.502;10.722;2022-12-16T00:56:52;24.40;;;13.40;;
14251;SDS011;7210;51.502;10.722;2022-12-16T00:59:20;25.30;;;13.30;;
14251;SDS011;7210;51.502;10.722;2022-12-16T01:01:47;22.37;;;13.60;;
14251;SDS011;7210;51.502;10.722;2022-12-16T01:04:15;24.00;;;13.90;;
14251;SDS011;7210;51.502;10.722;2022-12-16T01:06:42;21.07;;;14.00;;
14251;SDS011;7210;51.502;10.722;2022-12-16T01:09:09;22.27;;;13.70;;
14251;SDS011;7210;51.502;10.722;2022-12-16T01:11:38;23.13;;;13.57;;
14251;SDS011;7210;51.502;10.722;2022-12-16T01:14:07;22.20;;;12.60;;
14251;SDS011;7210;51.502;10.722;2022-12-16T01:16:34;23.87;;;13.13;;
14251;SDS011;7210;51.502;10.722;2022-12-16T01:19:01;21.60;;;14.23;;
14251;SDS011;7210;51.502;10.722;2022-12-16T01:21:29;33.17;;;16.67;;
14251;SDS011;7210;51.502;10.722;2022-12-16T01:23:56;34.07;;;17.23;;
14251;SDS011;7210;51.502;10.722;2022-12-16T01:26:23;25.83;;;14.27;;
14251;SDS011;7210;51.502;10.722;2022-12-16T01:28:52;25.40;;;13.77;;
14251;SDS011;7210;51.502;10.722;2022-12-16T01:31:21;22.70;;;13.97;;
14251;SDS011;7210;51.502;10.722;2022-12-16T01:33:49;21.83;;;13.13;;
14251;SDS011;7210;51.502;10.722;2022-12-16T01:36:22;24.63;;;14.40;;
14251;SDS011;7210;51.502;10.722;2022-12-16T01:38:50;22.80;;;14.37;;
14251;SDS011;7210;51.502;10.722;2022-12-16T01:41:19;21.03;;;13.93;;
14251;SDS011;7210;51.502;10.722;2022-12-16T01:43:47;26.60;;;14.10;;
14251;SDS011;7210;51.502;10.722;2022-12-16T01:46:22;20.93;;;12.83;;
14251;SDS011;7210;51.502;10.722;2022-12-16T01:48:51;22.10;;;13.03;;
14251;SDS011;7210;51.502;10.722;2022-12-16T01:51:27;21.57;;;13.20;;
14251;SDS011;7210;51.502;10.722;2022-12-16T01:54:02;23.70;;;12.67;;
14251;SDS011;7210;51.502;10.722;2022-12-16T01:56:38;24.17;;;13.53;;
14251;SDS011;7210;51.502;10.722;2022-12-16T01:59:09;20.70;;;12.60;;
14251;SDS011;7210;51.502;10.722;2022-12-16T02:01:42;21.90;;;13.13;;
14251;SDS011;7210;51.502;10.722;2022-12-16T02:04:09;24.93;;;13.70;;
14251;SDS011;7210;51.502;10.722;2022-12-16T02:06:37;24.47;;;13.97;;
14251;SDS011;7210;51.502;10.722;2022-12-16T02:09:05;21.73;;;13.40;;
14251;SDS011;7210;51.502;10.722;2022-12-16T02:11:41;23.13;;;12.73;;
14251;SDS011;7210;51.502;10.722;2022-12-16T02:18:02;17.00;;;11.00;;
14251;SDS011;7210;51.502;10.722;2022-12-16T02:20:44;21.27;;;12.03;;
14251;SDS011;7210;51.502;10.722;2022-12-16T02:23:44;17.57;;;11.30;;
14251;SDS011;7210;51.502;10.722;2022-12-16T02:26:58;17.33;;;9.80;;
14251;SDS011;7210;51.502;10.722;2022-12-16T02:30:30;19.93;;;10.57;;
14251;SDS011;7210;51.502;10.722;2022-12-16T02:33:41;22.90;;;10.83;;
14251;SDS011;7210;51.502;10.722;2022-12-16T02:36:21;20.67;;;10.17;;
14251;SDS011;7210;51.502;10.722;2022-12-16T02:39:04;17.90;;;10.03;;
14251;SDS011;7210;51.502;10.722;2022-12-16T02:41:41;20.53;;;11.43;;
14251;SDS011;7210;51.502;10.722;2022-12-16T02:44:20;18.03;;;10.57;;
14251;SDS011;7210;51.502;10.722;2022-12-16T02:47:02;21.40;;;11.47;;
14251;SDS011;7210;51.502;10.722;2022-12-16T02:52:20;19.53;;;12.03;;
14251;SDS011;7210;51.502;10.722;2022-12-16T02:54:51;19.73;;;12.57;;
14251;SDS011;7210;51.502;10.722;2022-12-16T02:57:33;18.73;;;11.50;;
14251;SDS011;7210;51.502;10.722;2022-12-16T03:00:23;18.03;;;11.20;;
14251;SDS011;7210;51.502;10.722;2022-12-16T03:02:56;19.73;;;10.70;;
14251;SDS011;7210;51.502;10.722;2022-12-16T03:08:48;19.53;;;10.63;;
14251;SDS011;7210;51.502;10.722;2022-12-16T03:11:22;20.40;;;11.83;;
14251;SDS011;7210;51.502;10.722;2022-12-16T03:13:55;17.27;;;10.63;;
14251;SDS011;7210;51.502;10.722;2022-12-16T03:19:16;18.03;;;11.07;;
14251;SDS011;7210;51.502;10.722;2022-12-16T03:21:48;15.30;;;10.70;;
14251;SDS011;7210;51.502;10.722;2022-12-16T03:24:25;23.70;;;11.87;;
14251;SDS011;7210;51.502;10.722;2022-12-16T03:26:55;21.97;;;10.33;;
14251;SDS011;7210;51.502;10.722;2022-12-16T03:29:36;20.97;;;11.67;;
14251;SDS011;7210;51.502;10.722;2022-12-16T03:32:12;17.50;;;9.93;;
14251;SDS011;7210;51.502;10.722;2022-12-16T03:34:50;19.20;;;12.03;;
14251;SDS011;7210;51.502;10.722;2022-12-16T03:37:26;19.37;;;11.60;;
14251;SDS011;7210;51.502;10.722;2022-12-16T03:39:59;17.73;;;11.50;;
14251;SDS011;7210;51.502;10.722;2022-12-16T03:42:32;17.93;;;10.77;;
14251;SDS011;7210;51.502;10.722;2022-12-16T03:45:03;20.13;;;11.13;;
14251;SDS011;7210;51.502;10.722;2022-12-16T03:47:33;20.10;;;10.90;;
14251;SDS011;7210;51.502;10.722;2022-12-16T03:50:02;18.23;;;11.07;;
14251;SDS011;7210;51.502;10.722;2022-12-16T03:52:30;22.37;;;11.83;;
14251;SDS011;7210;51.502;10.722;2022-12-16T03:54:57;21.70;;;11.10;;
14251;SDS011;7210;51.502;10.722;2022-12-16T03:57:25;18.90;;;11.33;;
14251;SDS011;7210;51.502;10.722;2022-12-16T03:59:53;17.33;;;11.07;;
14251;SDS011;7210;51.502;10.722;2022-12-16T04:02:20;18.43;;;11.27;;
14251;SDS011;7210;51.502;10.722;2022-12-16T04:04:47;21.87;;;11.60;;
14251;SDS011;7210;51.502;10.722;2022-12-16T04:07:16;18.10;;;10.53;;
14251;SDS011;7210;51.502;10.722;2022-12-16T04:09:46;17.27;;;10.13;;
14251;SDS011;7210;51.502;10.722;2022-12-16T04:12:17;17.00;;;10.23;;
14251;SDS011;7210;51.502;10.722;2022-12-16T04:15:03;17.50;;;9.80;;
14251;SDS011;7210;51.502;10.722;2022-12-16T04:17:50;17.13;;;10.03;;
14251;SDS011;7210;51.502;10.722;2022-12-16T04:20:42;21.40;;;11.73;;
14251;SDS011;7210;51.502;10.722;2022-12-16T04:23:35;17.97;;;10.07;;
14251;SDS011;7210;51.502;10.722;2022-12-16T04:26:28;16.33;;;10.23;;
14251;SDS011;7210;51.502;10.722;2022-12-16T04:29:16;21.97;;;12.60;;
14251;SDS011;7210;51.502;10.722;2022-12-16T04:31:44;22.60;;;13.33;;
14251;SDS011;7210;51.502;10.722;2022-12-16T04:34:11;19.10;;;11.60;;
14251;SDS011;7210;51.502;10.722;2022-12-16T04:36:50;20.93;;;11.20;;
14251;SDS011;7210;51.502;10.722;2022-12-16T04:39:36;18.27;;;11.27;;
14251;SDS011;7210;51.502;10.722;2022-12-16T04:42:20;20.23;;;11.13;;
14251;SDS011;7210;51.502;10.722;2022-12-16T04:45:05;19.67;;;10.80;;
14251;SDS011;7210;51.502;10.722;2022-12-16T04:47:51;18.03;;;10.70;;
14251;SDS011;7210;51.502;10.722;2022-12-16T04:50:37;20.87;;;10.63;;
14251;SDS011;7210;51.502;10.722;2022-12-16T04:53:22;15.90;;;9.73;;
14251;SDS011;7210;51.502;10.722;2022-12-16T04:56:08;16.97;;;10.50;;
14251;SDS011;7210;51.502;10.722;2022-12-16T04:58:54;17.77;;;10.53;;
14251;SDS011;7210;51.502;10.722;2022-12-16T05:01:39;21.60;;;10.30;;
14251;SDS011;7210;51.502;10.722;2022-12-16T05:04:23;19.97;;;10.17;;
14251;SDS011;7210;51.502;10.722;2022-12-16T05:07:08;19.37;;;10.37;;
14251;SDS011;7210;51.502;10.722;2022-12-16T05:09:53;16.97;;;9.90;;
14251;SDS011;7210;51.502;10.722;2022-12-16T05:12:39;17.43;;;9.53;;
14251;SDS011;7210;51.502;10.722;2022-12-16T05:15:23;22.10;;;12.40;;
14251;SDS011;7210;51.502;10.722;2022-12-16T05:18:10;35.83;;;19.27;;
14251;SDS011;7210;51.502;10.722;2022-12-16T05:20:57;21.33;;;12.07;;
14251;SDS011;7210;51.502;10.722;2022-12-16T05:23:43;13.57;;;9.40;;
14251;SDS011;7210;51.502;10.722;2022-12-16T05:26:28;17.80;;;9.17;;
14251;SDS011;7210;51.502;10.722;2022-12-16T05:29:15;16.70;;;10.10;;
14251;SDS011;7210;51.502;10.722;2022-12-16T05:32:00;18.03;;;9.73;;
14251;SDS011;7210;51.502;10.722;2022-12-16T05:34:44;14.80;;;9.17;;
14251;SDS011;7210;51.502;10.722;2022-12-16T05:37:29;18.20;;;9.87;;
14251;SDS011;7210;51.502;10.722;2022-12-16T05:40:14;13.53;;;10.03;;
14251;SDS011;7210;51.502;10.722;2022-12-16T05:42:59;18.43;;;9.70;;
14251;SDS011;7210;51.502;10.722;2022-12-16T05:45:45;16.37;;;9.47;;
14251;SDS011;7210;51.502;10.722;2022-12-16T05:48:30;16.40;;;10.03;;
14251;SDS011;7210;51.502;10.722;2022-12-16T05:51:16;20.37;;;9.57;;
14251;SDS011;7210;51.502;10.722;2022-12-16T05:54:00;18.10;;;10.20;;
14251;SDS011;7210;51.502;10.722;2022-12-16T05:56:44;16.57;;;9.63;;
14251;SDS011;7210;51.502;10.722;2022-12-16T05:59:29;15.50;;;9.00;;
14251;SDS011;7210;51.502;10.722;2022-12-16T06:02:15;15.97;;;9.90;;
14251;SDS011;7210;51.502;10.722;2022-12-16T06:05:16;16.97;;;9.80;;
14251;SDS011;7210;51.502;10.722;2022-12-16T06:08:01;18.53;;;10.40;;
14251;SDS011;7210;51.502;10.722;2022-12-16T06:10:46;15.80;;;9.80;;
14251;SDS011;7210;51.502;10.722;2022-12-16T06:13:30;17.40;;;9.93;;
14251;SDS011;7210;51.502;10.722;2022-12-16T06:16:15;18.37;;;9.93;;
14251;SDS011;7210;51.502;10.722;2022-12-16T06:19:01;13.43;;;8.97;;
14251;SDS011;7210;51.502;10.722;2022-12-16T06:21:45;19.27;;;10.37;;
14251;SDS011;7210;51.502;10.722;2022-12-16T06:24:30;16.40;;;10.50;;
14251;SDS011;7210;51.502;10.722;2022-12-16T06:27:15;20.47;;;12.17;;
14251;SDS011;7210;51.502;10.722;2022-12-16T06:29:59;19.80;;;11.77;;
14251;SDS011;7210;51.502;10.722;2022-12-16T06:32:44;20.37;;;9.67;;
14251;SDS011;7210;51.502;10.722;2022-12-16T06:35:30;13.80;;;8.33;;
14251;SDS011;7210;51.502;10.722;2022-12-16T06:38:15;15.73;;;9.00;;
14251;SDS011;7210;51.502;10.722;2022-12-16T06:40:59;15.70;;;9.23;;
14251;SDS011;7210;51.502;10.722;2022-12-16T06:43:44;19.73;;;9.47;;
14251;SDS011;7210;51.502;10.722;2022-12-16T06:46:29;17.37;;;9.80;;
14251;SDS011;7210;51.502;10.722;2022-12-16T06:49:14;15.80;;;10.40;;
14251;SDS011;7210;51.502;10.722;2022-12-16T06:52:05;14.73;;;9.17;;
14251;SDS011;7210;51.502;10.722;2022-12-16T06:54:50;16.27;;;9.60;;
14251;SDS011;7210;51.502;10.722;2022-12-16T06:57:34;14.77;;;9.77;;
14251;SDS011;7210;51.502;10.722;2022-12-16T07:00:21;18.70;;;9.97;;
14251;SDS011;7210;51.502;10.722;2022-12-16T07:03:06;16.80;;;9.17;;
14251;SDS011;7210;51.502;10.722;2022-12-16T07:05:51;19.60;;;12.97;;
14251;SDS011;7210;51.502;10.722;2022-12-16T07:08:38;16.67;;;9.90;;
14251;SDS011;7210;51.502;10.722;2022-12-16T07:11:22;22.40;;;11.47;;
14251;SDS011;7210;51.502;10.722;2022-12-16T07:14:07;17.70;;;9.50;;
14251;SDS011;7210;51.502;10.722;2022-12-16T07:16:51;17.17;;;9.00;;
14251;SDS011;7210;51.502;10.722;2022-12-16T07:19:36;17.33;;;10.10;;
14251;SDS011;7210;51.502;10.722;2022-12-16T07:22:23;15.80;;;9.70;;
14251;SDS011;7210;51.502;10.722;2022-12-16T07:25:09;15.53;;;9.20;;
14251;SDS011;7210;51.502;10.722;2022-12-16T07:27:53;17.83;;;9.57;;
14251;SDS011;7210;51.502;10.722;2022-12-16T07:30:38;17.43;;;9.70;;
14251;SDS011;7210;51.502;10.722;2022-12-16T07:33:24;16.27;;;9.30;;
14251;SDS011;7210;51.502;10.722;2022-12-16T07:36:09;21.37;;;10.93;;
14251;SDS011;7210;51.502;10.722;2022-12-16T07:38:58;18.30;;;10.47;;
14251;SDS011;7210;51.502;10.722;2022-12-16T07:41:44;16.63;;;10.10;;
14251;SDS011;7210;51.502;10.722;2022-12-16T07:44:29;19.43;;;11.37;;
14251;SDS011;7210;51.502;10.722;2022-12-16T07:47:13;19.03;;;11.20;;
14251;SDS011;7210;51.502;10.722;2022-12-16T07:49:58;17.83;;;11.37;;
14251;SDS011;7210;51.502;10.722;2022-12-16T07:52:42;19.10;;;11.37;;
14251;SDS011;7210;51.502;10.722;2022-12-16T07:55:27;18.70;;;11.50;;
14251;SDS011;7210;51.502;10.722;2022-12-16T07:58:13;15.67;;;10.10;;
14251;SDS011;7210;51.502;10.722;2022-12-16T08:00:59;17.60;;;10.53;;
14251;SDS011;7210;51.502;10.722;2022-12-16T08:03:45;17.33;;;11.03;;
14251;SDS011;7210;51.502;10.722;2022-12-16T08:06:30;18.40;;;10.67;;
14251;SDS011;7210;51.502;10.722;2022-12-16T08:09:14;20.87;;;12.83;;
14251;SDS011;7210;51.502;10.722;2022-12-16T08:11:59;21.00;;;11.27;;
14251;SDS011;7210;51.502;10.722;2022-12-16T08:14:48;16.83;;;10.03;;
14251;SDS011;7210;51.502;10.722;2022-12-16T08:17:32;19.70;;;12.23;;
14251;SDS011;7210;51.502;10.722;2022-12-16T08:20:17;18.20;;;10.83;;
14251;SDS011;7210;51.502;10.722;2022-12-16T08:23:02;20.87;;;13.20;;
14251;SDS011;7210;51.502;10.722;2022-12-16T08:25:47;17.87;;;11.23;;
14251;SDS011;7210;51.502;10.722;2022-12-16T08:28:32;22.90;;;11.83;;
14251;SDS011;7210;51.502;10.722;2022-12-16T08:31:18;14.23;;;9.63;;
14251;SDS011;7210;51.502;10.722;2022-12-16T08:34:03;16.00;;;11.40;;
14251;SDS011;7210;51.502;10.722;2022-12-16T08:36:47;17.40;;;11.33;;
14251;SDS011;7210;51.502;10.722;2022-12-16T08:39:32;18.13;;;11.40;;
14251;SDS011;7210;51.502;10.722;2022-12-16T08:42:17;17.07;;;10.23;;
14251;SDS011;7210;51.502;10.722;2022-12-16T08:45:01;13.57;;;9.83;;
14251;SDS011;7210;51.502;10.722;2022-12-16T08:47:48;15.60;;;9.13;;
14251;SDS011;7210;51.502;10.722;2022-12-16T08:50:33;15.77;;;8.80;;
14251;SDS011;7210;51.502;10.722;2022-12-16T08:53:18;15.50;;;8.90;;
14251;SDS011;7210;51.502;10.722;2022-12-16T08:56:03;15.97;;;9.47;;
14251;SDS011;7210;51.502;10.722;2022-12-16T08:58:48;16.03;;;8.57;;
14251;SDS011;7210;51.502;10.722;2022-12-16T09:01:33;16.47;;;9.17;;
14251;SDS011;7210;51.502;10.722;2022-12-16T09:04:19;14.60;;;7.90;;
14251;SDS011;7210;51.502;10.722;2022-12-16T09:07:04;13.70;;;8.23;;
14251;SDS011;7210;51.502;10.722;2022-12-16T09:09:49;13.33;;;9.17;;
14251;SDS011;7210;51.502;10.722;2022-12-16T09:12:34;15.87;;;10.70;;
14251;SDS011;7210;51.502;10.722;2022-12-16T09:15:15;16.27;;;10.93;;
14251;SDS011;7210;51.502;10.722;2022-12-16T09:17:59;18.50;;;12.23;;
14251;SDS011;7210;51.502;10.722;2022-12-16T09:20:47;17.33;;;12.07;;
14251;SDS011;7210;51.502;10.722;2022-12-16T09:23:34;14.73;;;9.50;;
14251;SDS011;7210;51.502;10.722;2022-12-16T09:26:18;16.03;;;8.70;;
14251;SDS011;7210;51.502;10.722;2022-12-16T09:29:04;16.17;;;9.93;;
14251;SDS011;7210;51.502;10.722;2022-12-16T09:31:49;18.93;;;11.10;;
14251;SDS011;7210;51.502;10.722;2022-12-16T09:34:34;16.33;;;9.97;;
14251;SDS011;7210;51.502;10.722;2022-12-16T09:37:34;19.90;;;12.20;;
14251;SDS011;7210;51.502;10.722;2022-12-16T09:40:19;14.87;;;9.77;;
14251;SDS011;7210;51.502;10.722;2022-12-16T09:43:05;19.63;;;12.53;;
14251;SDS011;7210;51.502;10.722;2022-12-16T09:46:21;16.10;;;10.00;;
14251;SDS011;7210;51.502;10.722;2022-12-16T09:49:21;17.47;;;11.00;;
14251;SDS011;7210;51.502;10.722;2022-12-16T09:52:23;18.77;;;10.43;;
14251;SDS011;7210;51.502;10.722;2022-12-16T09:55:20;17.70;;;10.47;;
14251;SDS011;7210;51.502;10.722;2022-12-16T09:58:09;17.30;;;10.23;;
14251;SDS011;7210;51.502;10.722;2022-12-16T10:00:56;20.60;;;13.00;;
14251;SDS011;7210;51.502;10.722;2022-12-16T10:03:43;16.80;;;10.93;;
14251;SDS011;7210;51.502;10.722;2022-12-16T10:06:31;20.43;;;12.10;;
14251;SDS011;7210;51.502;10.722;2022-12-16T10:09:28;14.90;;;10.20;;
14251;SDS011;7210;51.502;10.722;2022-12-16T10:12:28;46.47;;;25.47;;
14251;SDS011;7210;51.502;10.722;2022-12-16T10:15:27;39.73;;;22.43;;
14251;SDS011;7210;51.502;10.722;2022-12-16T10:18:29;29.27;;;16.40;;
14251;SDS011;7210;51.502;10.722;2022-12-16T10:21:39;18.27;;;11.30;;
14251;SDS011;7210;51.502;10.722;2022-12-16T10:24:37;19.90;;;11.07;;
14251;SDS011;7210;51.502;10.722;2022-12-16T10:27:40;16.23;;;9.97;;
14251;SDS011;7210;51.502;10.722;2022-12-16T10:30:29;26.67;;;17.27;;
14251;SDS011;7210;51.502;10.722;2022-12-16T10:33:15;40.00;;;24.10;;
14251;SDS011;7210;51.502;10.722;2022-12-16T10:36:04;31.33;;;15.93;;
14251;SDS011;7210;51.502;10.722;2022-12-16T10:38:57;20.43;;;11.30;;
14251;SDS011;7210;51.502;10.722;2022-12-16T10:41:50;29.27;;;18.23;;
14251;SDS011;7210;51.502;10.722;2022-12-16T10:44:43;32.93;;;18.00;;
14251;SDS011;7210;51.502;10.722;2022-12-16T10:47:37;19.47;;;12.10;;
14251;SDS011;7210;51.502;10.722;2022-12-16T10:50:22;16.90;;;12.03;;
14251;SDS011;7210;51.502;10.722;2022-12-16T10:53:08;17.60;;;12.33;;
14251;SDS011;7210;51.502;10.722;2022-12-16T10:55:58;25.53;;;17.43;;
14251;SDS011;7210;51.502;10.722;2022-12-16T10:58:57;24.63;;;15.60;;
14251;SDS011;7210;51.502;10.722;2022-12-16T11:01:56;14.97;;;10.87;;
14251;SDS011;7210;51.502;10.722;2022-12-16T11:04:46;17.03;;;10.60;;
14251;SDS011;7210;51.502;10.722;2022-12-16T11:07:35;20.30;;;10.53;;
14251;SDS011;7210;51.502;10.722;2022-12-16T11:10:34;17.00;;;11.63;;
14251;SDS011;7210;51.502;10.722;2022-12-16T11:13:22;16.17;;;11.47;;
14251;SDS011;7210;51.502;10.722;2022-12-16T11:16:11;14.60;;;11.50;;
14251;SDS011;7210;51.502;10.722;2022-12-16T11:19:07;20.20;;;12.17;;
14251;SDS011;7210;51.502;10.722;2022-12-16T11:22:04;15.83;;;10.77;;
14251;SDS011;7210;51.502;10.722;2022-12-16T11:25:02;15.07;;;10.57;;
14251;SDS011;7210;51.502;10.722;2022-12-16T11:27:50;15.47;;;10.03;;
14251;SDS011;7210;51.502;10.722;2022-12-16T11:30:48;23.77;;;14.00;;
14251;SDS011;7210;51.502;10.722;2022-12-16T11:33:38;18.87;;;12.90;;
14251;SDS011;7210;51.502;10.722;2022-12-16T11:36:26;18.73;;;11.60;;
14251;SDS011;7210;51.502;10.722;2022-12-16T11:39:16;14.93;;;10.80;;
14251;SDS011;7210;51.502;10.722;2022-12-16T11:42:05;16.60;;;11.17;;
14251;SDS011;7210;51.502;10.722;2022-12-16T11:45:02;17.83;;;10.93;;
14251;SDS011;7210;51.502;10.722;2022-12-16T11:47:52;14.33;;;10.70;;
14251;SDS011;7210;51.502;10.722;2022-12-16T11:50:46;17.40;;;11.93;;
14251;SDS011;7210;51.502;10.722;2022-12-16T11:53:39;17.03;;;11.40;;
14251;SDS011;7210;51.502;10.722;2022-12-16T11:56:32;17.73;;;10.90;;
14251;SDS011;7210;51.502;10.722;2022-12-16T11:59:22;14.73;;;11.03;;
14251;SDS011;7210;51.502;10.722;2022-12-16T12:02:17;17.53;;;11.27;;
14251;SDS011;7210;51.502;10.722;2022-12-16T12:05:11;16.00;;;12.03;;
14251;SDS011;7210;51.502;10.722;2022-12-16T12:07:57;17.83;;;11.73;;
14251;SDS011;7210;51.502;10.722;2022-12-16T12:10:57;16.53;;;11.27;;
14251;SDS011;7210;51.502;10.722;2022-12-16T12:13:59;14.77;;;9.77;;
14251;SDS011;7210;51.502;10.722;2022-12-16T12:20:03;20.77;;;13.30;;
14251;SDS011;7210;51.502;10.722;2022-12-16T12:23:13;18.20;;;12.80;;
14251;SDS011;7210;51.502;10.722;2022-12-16T12:26:11;19.23;;;12.57;;
14251;SDS011;7210;51.502;10.722;2022-12-16T12:29:03;17.47;;;11.97;;
14251;SDS011;7210;51.502;10.722;2022-12-16T12:32:01;19.63;;;12.27;;
14251;SDS011;7210;51.502;10.722;2022-12-16T12:35:03;17.20;;;12.90;;
14251;SDS011;7210;51.502;10.722;2022-12-16T12:38:08;17.83;;;13.07;;
14251;SDS011;7210;51.502;10.722;2022-12-16T12:41:02;18.87;;;13.30;;
14251;SDS011;7210;51.502;10.722;2022-12-16T12:44:00;18.97;;;13.73;;
14251;SDS011;7210;51.502;10.722;2022-12-16T12:46:57;20.33;;;14.40;;
14251;SDS011;7210;51.502;10.722;2022-12-16T12:49:49;19.80;;;14.67;;
14251;SDS011;7210;51.502;10.722;2022-12-16T12:52:53;18.80;;;14.13;;
14251;SDS011;7210;51.502;10.722;2022-12-16T12:55:59;18.67;;;13.40;;
14251;SDS011;7210;51.502;10.722;2022-12-16T12:59:00;16.10;;;12.67;;
14251;SDS011;7210;51.502;10.722;2022-12-16T13:01:56;16.40;;;12.57;;
14251;SDS011;7210;51.502;10.722;2022-12-16T13:04:44;18.37;;;14.13;;
14251;SDS011;7210;51.502;10.722;2022-12-16T13:07:34;19.93;;;14.00;;
14251;SDS011;7210;51.502;10.722;2022-12-16T13:10:29;19.53;;;13.67;;
14251;SDS011;7210;51.502;10.722;2022-12-16T13:13:27;18.83;;;13.17;;
14251;SDS011;7210;51.502;10.722;2022-12-16T13:19:43;18.97;;;13.80;;
14251;SDS011;7210;51.502;10.722;2022-12-16T13:22:38;19.07;;;13.23;;
14251;SDS011;7210;51.502;10.722;2022-12-16T13:25:31;19.23;;;12.47;;
14251;SDS011;7210;51.502;10.722;2022-12-16T13:28:33;16.33;;;12.17;;
14251;SDS011;7210;51.502;10.722;2022-12-16T13:31:20;19.93;;;13.17;;
14251;SDS011;7210;51.502;10.722;2022-12-16T13:34:20;18.53;;;12.70;;
14251;SDS011;7210;51.502;10.722;2022-12-16T13:37:22;17.53;;;11.83;;
14251;SDS011;7210;51.502;10.722;2022-12-16T13:40:17;24.70;;;16.33;;
14251;SDS011;7210;51.502;10.722;2022-12-16T13:43:13;35.37;;;21.53;;
14251;SDS011;7210;51.502;10.722;2022-12-16T13:46:37;25.03;;;16.53;;
14251;SDS011;7210;51.502;10.722;2022-12-16T13:49:40;24.10;;;16.80;;
14251;SDS011;7210;51.502;10.722;2022-12-16T13:52:41;25.73;;;15.40;;
14251;SDS011;7210;51.502;10.722;2022-12-16T13:55:36;16.63;;;12.77;;
14251;SDS011;7210;51.502;10.722;2022-12-16T13:58:30;20.70;;;12.17;;
14251;SDS011;7210;51.502;10.722;2022-12-16T14:01:23;20.10;;;13.67;;
14251;SDS011;7210;51.502;10.722;2022-12-16T14:04:27;16.37;;;12.63;;
14251;SDS011;7210;51.502;10.722;2022-12-16T14:07:17;18.50;;;12.60;;
14251;SDS011;7210;51.502;10.722;2022-12-16T14:10:16;18.97;;;12.80;;
14251;SDS011;7210;51.502;10.722;2022-12-16T14:13:08;18.13;;;11.77;;
14251;SDS011;7210;51.502;10.722;2022-12-16T14:16:03;20.60;;;15.80;;
14251;SDS011;7210;51.502;10.722;2022-12-16T14:19:00;35.00;;;24.90;;
14251;SDS011;7210;51.502;10.722;2022-12-16T14:22:05;35.60;;;28.23;;
14251;SDS011;7210;51.502;10.722;2022-12-16T14:25:12;22.33;;;16.57;;
14251;SDS011;7210;51.502;10.722;2022-12-16T14:28:02;19.73;;;13.53;;
14251;SDS011;7210;51.502;10.722;2022-12-16T14:31:03;17.30;;;12.23;;
14251;SDS011;7210;51.502;10.722;2022-12-16T14:33:54;20.83;;;13.50;;
14251;SDS011;7210;51.502;10.722;2022-12-16T14:36:45;18.40;;;14.13;;
14251;SDS011;7210;51.502;10.722;2022-12-16T14:39:35;27.67;;;19.13;;
14251;SDS011;7210;51.502;10.722;2022-12-16T14:42:23;19.97;;;14.70;;
14251;SDS011;7210;51.502;10.722;2022-12-16T14:45:19;20.40;;;13.43;;
14251;SDS011;7210;51.502;10.722;2022-12-16T14:48:13;18.87;;;12.17;;
14251;SDS011;7210;51.502;10.722;2022-12-16T14:51:18;16.40;;;11.90;;
14251;SDS011;7210;51.502;10.722;2022-12-16T14:54:21;19.20;;;12.07;;
14251;SDS011;7210;51.502;10.722;2022-12-16T14:57:20;15.20;;;11.80;;
14251;SDS011;7210;51.502;10.722;2022-12-16T15:00:10;21.33;;;12.97;;
14251;SDS011;7210;51.502;10.722;2022-12-16T15:03:00;19.53;;;12.37;;
14251;SDS011;7210;51.502;10.722;2022-12-16T15:05:54;16.87;;;11.07;;
14251;SDS011;7210;51.502;10.722;2022-12-16T15:08:45;16.83;;;11.17;;
14251;SDS011;7210;51.502;10.722;2022-12-16T15:11:33;31.43;;;21.60;;
14251;SDS011;7210;51.502;10.722;2022-12-16T15:14:31;28.17;;;17.63;;
14251;SDS011;7210;51.502;10.722;2022-12-16T15:17:19;27.17;;;18.17;;
14251;SDS011;7210;51.502;10.722;2022-12-16T15:20:12;23.10;;;15.23;;
14251;SDS011;7210;51.502;10.722;2022-12-16T15:23:08;21.97;;;13.63;;
14251;SDS011;7210;51.502;10.722;2022-12-16T15:26:02;21.13;;;12.30;;
14251;SDS011;7210;51.502;10.722;2022-12-16T15:28:48;17.77;;;11.80;;
14251;SDS011;7210;51.502;10.722;2022-12-16T15:31:34;15.87;;;11.37;;
14251;SDS011;7210;51.502;10.722;2022-12-16T15:34:23;18.20;;;12.60;;
14251;SDS011;7210;51.502;10.722;2022-12-16T15:37:16;24.63;;;12.33;;
14251;SDS011;7210;51.502;10.722;2022-12-16T15:40:23;17.77;;;13.10;;
14251;SDS011;7210;51.502;10.722;2022-12-16T15:43:21;19.67;;;13.17;;
14251;SDS011;7210;51.502;10.722;2022-12-16T15:46:17;20.60;;;13.50;;
14251;SDS011;7210;51.502;10.722;2022-12-16T15:49:13;20.83;;;13.60;;
14251;SDS011;7210;51.502;10.722;2022-12-16T15:55:24;76.23;;;41.20;;
14251;SDS011;7210;51.502;10.722;2022-12-16T15:58:19;38.57;;;22.70;;
14251;SDS011;7210;51.502;10.722;2022-12-16T16:01:08;34.90;;;19.60;;
14251;SDS011;7210;51.502;10.722;2022-12-16T16:03:56;30.47;;;18.53;;
14251;SDS011;7210;51.502;10.722;2022-12-16T16:06:45;27.57;;;17.23;;
14251;SDS011;7210;51.502;10.722;2022-12-16T16:09:33;37.40;;;22.97;;
14251;SDS011;7210;51.502;10.722;2022-12-16T16:12:20;39.83;;;22.57;;
14251;SDS011;7210;51.502;10.722;2022-12-16T16:15:08;27.97;;;16.10;;
14251;SDS011;7210;51.502;10.722;2022-12-16T16:17:55;25.73;;;15.93;;
14251;SDS011;7210;51.502;10.722;2022-12-16T16:20:46;42.17;;;23.40;;
14251;SDS011;7210;51.502;10.722;2022-12-16T16:23:32;30.40;;;19.43;;
14251;SDS011;7210;51.502;10.722;2022-12-16T16:26:18;25.80;;;17.20;;
14251;SDS011;7210;51.502;10.722;2022-12-16T16:29:09;24.33;;;15.87;;
14251;SDS011;7210;51.502;10.722;2022-12-16T16:31:54;25.80;;;15.43;;